createdAt,value
2017-03-27T00:00:02.374Z,85.3
2017-03-27T00:01:03.679Z,84.92
2017-03-27T00:02:04.917Z,85.11
2017-03-27T00:03:06.151Z,85.02
2017-03-27T00:04:07.379Z,85.02
2017-03-27T00:05:08.610Z,84.92
2017-03-27T00:06:09.866Z,84.83
2017-03-27T00:07:11.148Z,84.74
2017-03-27T00:08:12.417Z,85.02
2017-03-27T00:09:13.819Z,85.11
2017-03-27T00:10:14.948Z,85.11
2017-03-27T00:11:16.185Z,84.83
2017-03-27T00:12:17.444Z,85.11
2017-03-27T00:13:18.676Z,84.92
2017-03-27T00:14:19.915Z,84.74
2017-03-27T00:15:21.342Z,84.92
2017-03-27T00:16:22.588Z,85.11
2017-03-27T00:17:23.807Z,84.74
2017-03-27T00:18:25.067Z,84.92
2017-03-27T00:19:26.349Z,84.74
2017-03-27T00:20:27.585Z,85.21
2017-03-27T00:21:28.907Z,84.83
2017-03-27T00:22:30.216Z,85.4
2017-03-27T00:23:31.465Z,85.11
2017-03-27T00:24:32.744Z,85.59
2017-03-27T00:25:33.985Z,85.87
2017-03-27T00:26:35.244Z,85.68
2017-03-27T00:27:36.493Z,85.49
2017-03-27T00:28:37.741Z,85.68
2017-03-27T00:29:38.999Z,85.97
2017-03-27T00:30:40.212Z,85.97
2017-03-27T00:31:41.449Z,85.74
2017-03-27T00:32:42.746Z,85.64
2017-03-27T00:33:44.111Z,85.93
2017-03-27T00:34:45.296Z,85.74
2017-03-27T00:35:46.564Z,85.83
2017-03-27T00:36:47.788Z,86.21
2017-03-27T00:37:49.041Z,86.3
2017-03-27T00:38:50.313Z,86.21
2017-03-27T00:39:51.541Z,86.21
2017-03-27T00:40:52.875Z,86.21
2017-03-27T00:41:54.099Z,86.21
2017-03-27T00:42:55.337Z,86.59
2017-03-27T00:43:56.558Z,86.49
2017-03-27T00:44:57.833Z,86.49
2017-03-27T00:45:59.066Z,86.49
2017-03-27T00:47:00.316Z,86.4
2017-03-27T00:48:01.565Z,86.49
2017-03-27T00:49:02.783Z,86.3
2017-03-27T00:50:04.036Z,86.3
2017-03-27T00:51:05.273Z,86.78
2017-03-27T00:52:06.591Z,87.06
2017-03-27T00:53:07.894Z,86.87
2017-03-27T00:54:09.086Z,87.06
2017-03-27T00:55:10.337Z,87.06
2017-03-27T00:56:11.600Z,87.06
2017-03-27T00:57:12.837Z,86.68
2017-03-27T00:58:14.076Z,86.87
2017-03-27T00:59:15.393Z,86.87
2017-03-27T01:00:16.644Z,86.87
2017-03-27T01:01:17.887Z,86.87
2017-03-27T01:02:19.143Z,87.06
2017-03-27T01:03:20.351Z,87.06
2017-03-27T01:04:21.592Z,86.87
2017-03-27T01:05:22.956Z,86.97
2017-03-27T01:06:24.196Z,86.97
2017-03-27T01:07:25.409Z,87.25
2017-03-27T01:08:26.650Z,87.25
2017-03-27T01:09:27.927Z,86.97
2017-03-27T01:10:29.204Z,86.87
2017-03-27T01:11:30.489Z,86.87
2017-03-27T01:12:31.749Z,86.78
2017-03-27T01:13:33.001Z,86.87
2017-03-27T01:14:34.242Z,86.87
2017-03-27T01:15:35.492Z,87.06
2017-03-27T01:16:36.758Z,86.87
2017-03-27T01:17:38.049Z,86.78
2017-03-27T01:18:39.289Z,87.06
2017-03-27T01:19:40.553Z,87.25
2017-03-27T01:20:41.781Z,87.25
2017-03-27T01:21:43.016Z,87.16
2017-03-27T01:22:44.236Z,87.45
2017-03-27T01:23:45.554Z,86.87
2017-03-27T01:24:46.822Z,87.16
2017-03-27T01:25:48.221Z,87.16
2017-03-27T01:26:49.424Z,87.06
2017-03-27T01:27:50.662Z,87.06
2017-03-27T01:28:51.910Z,87.25
2017-03-27T01:29:53.231Z,87.25
2017-03-27T01:30:54.551Z,87.21
2017-03-27T01:31:55.897Z,87.21
2017-03-27T01:32:57.168Z,87.16
2017-03-27T01:33:58.375Z,86.97
2017-03-27T01:34:59.625Z,87.49
2017-03-27T01:36:00.862Z,87.4
2017-03-27T01:37:02.121Z,87.49
2017-03-27T01:38:03.342Z,87.77
2017-03-27T01:39:04.583Z,87.3
2017-03-27T01:40:05.810Z,87.68
2017-03-27T01:41:07.072Z,88.06
2017-03-27T01:42:08.317Z,87.4
2017-03-27T01:43:09.539Z,87.87
2017-03-27T01:44:10.837Z,87.68
2017-03-27T01:45:12.092Z,87.68
2017-03-27T01:46:13.318Z,87.49
2017-03-27T01:47:14.565Z,87.49
2017-03-27T01:48:15.826Z,87.59
2017-03-27T01:49:17.056Z,87.49
2017-03-27T01:50:18.352Z,87.68
2017-03-27T01:51:19.583Z,87.59
2017-03-27T01:52:20.841Z,87.59
2017-03-27T01:53:22.079Z,87.49
2017-03-27T01:54:23.308Z,87.49
2017-03-27T01:55:24.599Z,87.68
2017-03-27T01:56:25.835Z,87.68
2017-03-27T01:57:27.067Z,87.68
2017-03-27T01:58:28.316Z,87.68
2017-03-27T01:59:29.587Z,87.49
2017-03-27T02:00:30.874Z,87.68
2017-03-27T02:01:32.104Z,87.4
2017-03-27T02:02:33.423Z,87.4
2017-03-27T02:03:34.800Z,87.3
2017-03-27T02:04:36.143Z,87.77
2017-03-27T02:05:37.384Z,87.59
2017-03-27T02:06:38.619Z,87.4
2017-03-27T02:07:39.856Z,87.4
2017-03-27T02:08:41.090Z,87.68
2017-03-27T02:09:42.436Z,87.68
2017-03-27T02:10:43.669Z,87.4
2017-03-27T02:11:44.898Z,87.49
2017-03-27T02:12:46.137Z,87.21
2017-03-27T02:13:47.384Z,87.4
2017-03-27T02:14:48.775Z,87.21
2017-03-27T02:15:50.059Z,87.3
2017-03-27T02:16:51.286Z,86.93
2017-03-27T02:17:52.519Z,87.12
2017-03-27T02:18:53.764Z,86.83
2017-03-27T02:19:55.008Z,86.74
2017-03-27T02:20:56.362Z,87.02
2017-03-27T02:21:57.539Z,87.12
2017-03-27T02:22:58.785Z,86.74
2017-03-27T02:24:00.026Z,86.93
2017-03-27T02:25:01.262Z,86.83
2017-03-27T02:26:02.533Z,86.93
2017-03-27T02:27:03.798Z,86.93
2017-03-27T02:28:05.030Z,86.74
2017-03-27T02:29:06.269Z,86.83
2017-03-27T02:30:07.499Z,86.83
2017-03-27T02:31:08.739Z,86.83
2017-03-27T02:32:09.968Z,86.26
2017-03-27T02:33:11.207Z,86.45
2017-03-27T02:34:12.501Z,86.35
2017-03-27T02:35:13.737Z,86.26
2017-03-27T02:36:14.985Z,86.16
2017-03-27T02:37:16.236Z,85.97
2017-03-27T02:38:17.448Z,85.78
2017-03-27T02:39:18.782Z,85.5
2017-03-27T02:40:20.161Z,85.78
2017-03-27T02:41:21.394Z,85.5
2017-03-27T02:42:22.633Z,85.36
2017-03-27T02:43:23.870Z,84.98
2017-03-27T02:44:25.209Z,84.55
2017-03-27T02:45:26.450Z,84.84
2017-03-27T02:46:27.722Z,84.74
2017-03-27T02:47:28.965Z,84.65
2017-03-27T02:48:30.255Z,84.74
2017-03-27T02:49:31.484Z,84.55
2017-03-27T02:50:32.731Z,84.27
2017-03-27T02:51:33.970Z,84.55
2017-03-27T02:52:35.202Z,84.65
2017-03-27T02:53:36.603Z,84.36
2017-03-27T02:54:37.836Z,84.27
2017-03-27T02:55:39.071Z,84.55
2017-03-27T02:56:40.306Z,84.55
2017-03-27T02:57:41.556Z,84.65
2017-03-27T02:58:42.777Z,84.46
2017-03-27T02:59:44.006Z,84.36
2017-03-27T03:00:45.274Z,84.65
2017-03-27T03:01:46.486Z,84.74
2017-03-27T03:02:47.744Z,84.65
2017-03-27T03:03:48.962Z,84.46
2017-03-27T03:04:50.222Z,84.55
2017-03-27T03:05:51.523Z,84.84
2017-03-27T03:06:52.901Z,84.84
2017-03-27T03:07:54.167Z,84.65
2017-03-27T03:08:55.388Z,85.03
2017-03-27T03:09:56.626Z,85.03
2017-03-27T03:10:57.856Z,84.65
2017-03-27T03:11:59.096Z,84.65
2017-03-27T03:13:00.339Z,84.46
2017-03-27T03:14:01.563Z,85.31
2017-03-27T03:15:02.794Z,85.13
2017-03-27T03:16:04.034Z,85.03
2017-03-27T03:17:05.282Z,85.03
2017-03-27T03:18:06.556Z,84.74
2017-03-27T03:19:07.778Z,84.84
2017-03-27T03:20:09.027Z,84.74
2017-03-27T03:21:10.259Z,84.84
2017-03-27T03:22:11.497Z,84.84
2017-03-27T03:23:12.738Z,84.65
2017-03-27T03:24:13.967Z,84.84
2017-03-27T03:25:15.204Z,84.94
2017-03-27T03:26:16.463Z,84.55
2017-03-27T03:27:17.678Z,84.74
2017-03-27T03:28:18.923Z,85.03
2017-03-27T03:29:20.170Z,85.03
2017-03-27T03:30:21.391Z,85.13
2017-03-27T03:31:22.676Z,85.22
2017-03-27T03:32:23.919Z,84.7
2017-03-27T03:33:25.268Z,84.84
2017-03-27T03:34:26.497Z,84.89
2017-03-27T03:35:27.735Z,84.8
2017-03-27T03:36:28.982Z,85.69
2017-03-27T03:37:30.223Z,85.41
2017-03-27T03:38:31.455Z,85.27
2017-03-27T03:39:32.764Z,85.55
2017-03-27T03:40:33.994Z,85.36
2017-03-27T03:41:35.223Z,85.93
2017-03-27T03:42:36.461Z,85.31
2017-03-27T03:43:37.708Z,85.84
2017-03-27T03:44:38.969Z,85.6
2017-03-27T03:45:40.302Z,85.6
2017-03-27T03:46:41.456Z,85.74
2017-03-27T03:47:42.707Z,85.55
2017-03-27T03:48:43.970Z,85.46
2017-03-27T03:49:45.206Z,85.27
2017-03-27T03:50:46.452Z,85.27
2017-03-27T03:51:47.718Z,85.36
2017-03-27T03:52:48.913Z,85.27
2017-03-27T03:53:50.145Z,85.36
2017-03-27T03:54:51.398Z,85.36
2017-03-27T03:55:52.668Z,85.55
2017-03-27T03:56:53.908Z,85.36
2017-03-27T03:57:55.178Z,85.36
2017-03-27T03:58:56.429Z,85.36
2017-03-27T03:59:57.669Z,85.36
2017-03-27T04:00:58.956Z,85.65
2017-03-27T04:02:00.204Z,85.74
2017-03-27T04:03:01.445Z,85.84
2017-03-27T04:04:02.713Z,85.36
2017-03-27T04:05:03.963Z,85.65
2017-03-27T04:06:05.192Z,85.74
2017-03-27T04:07:06.459Z,85.55
2017-03-27T04:08:07.706Z,85.36
2017-03-27T04:09:08.938Z,85.17
2017-03-27T04:10:10.171Z,85.27
2017-03-27T04:11:11.458Z,84.7
2017-03-27T04:12:12.696Z,85.08
2017-03-27T04:13:13.937Z,84.7
2017-03-27T04:14:15.166Z,84.8
2017-03-27T04:15:16.393Z,84.42
2017-03-27T04:16:17.644Z,84.51
2017-03-27T04:17:19.031Z,84.8
2017-03-27T04:18:20.385Z,84.8
2017-03-27T04:19:21.604Z,84.7
2017-03-27T04:20:22.844Z,84.8
2017-03-27T04:21:24.119Z,84.8
2017-03-27T04:22:25.328Z,84.8
2017-03-27T04:23:26.585Z,84.7
2017-03-27T04:24:27.813Z,84.8
2017-03-27T04:25:29.141Z,84.8
2017-03-27T04:26:30.376Z,84.7
2017-03-27T04:27:31.615Z,85.08
2017-03-27T04:28:32.853Z,84.8
2017-03-27T04:29:34.090Z,84.7
2017-03-27T04:30:35.362Z,84.42
2017-03-27T04:31:36.586Z,84.32
2017-03-27T04:32:38.000Z,83.94
2017-03-27T04:33:39.227Z,84.04
2017-03-27T04:34:40.460Z,84.61
2017-03-27T04:35:41.718Z,84.42
2017-03-27T04:36:42.962Z,84.61
2017-03-27T04:37:44.213Z,84.13
2017-03-27T04:38:45.426Z,83.7
2017-03-27T04:39:46.654Z,83.56
2017-03-27T04:40:47.886Z,83.7
2017-03-27T04:41:49.183Z,83.8
2017-03-27T04:42:50.588Z,83.23
2017-03-27T04:43:51.861Z,83.18
2017-03-27T04:44:53.062Z,83.28
2017-03-27T04:45:54.299Z,83.32
2017-03-27T04:46:55.540Z,83.28
2017-03-27T04:47:56.793Z,83.23
2017-03-27T04:48:58.063Z,83.28
2017-03-27T04:49:59.357Z,83.42
2017-03-27T04:51:00.685Z,83.04
2017-03-27T04:52:01.928Z,83.42
2017-03-27T04:53:03.219Z,83.13
2017-03-27T04:54:04.444Z,83.04
2017-03-27T04:55:05.683Z,82.9
2017-03-27T04:56:07.032Z,82.85
2017-03-27T04:57:08.259Z,82.71
2017-03-27T04:58:09.510Z,82.52
2017-03-27T04:59:10.743Z,82.81
2017-03-27T05:00:11.976Z,82.9
2017-03-27T05:01:13.219Z,82.75
2017-03-27T05:02:14.482Z,83
2017-03-27T05:03:15.717Z,83.18
2017-03-27T05:04:17.018Z,83.18
2017-03-27T05:05:18.258Z,83.13
2017-03-27T05:06:19.494Z,83.28
2017-03-27T05:07:20.755Z,83.18
2017-03-27T05:08:21.984Z,83.32
2017-03-27T05:09:23.286Z,83.28
2017-03-27T05:10:24.606Z,82.81
2017-03-27T05:11:25.837Z,82.75
2017-03-27T05:12:27.270Z,82.75
2017-03-27T05:13:28.479Z,82.94
2017-03-27T05:14:29.706Z,83.23
2017-03-27T05:15:30.947Z,83.42
2017-03-27T05:16:32.305Z,83.13
2017-03-27T05:17:33.552Z,82.94
2017-03-27T05:18:34.788Z,83.23
2017-03-27T05:19:36.027Z,83.23
2017-03-27T05:20:37.283Z,82.75
2017-03-27T05:21:38.571Z,82.33
2017-03-27T05:22:39.887Z,82.56
2017-03-27T05:23:41.011Z,82.52
2017-03-27T05:24:42.252Z,82.66
2017-03-27T05:25:43.575Z,82.71
2017-03-27T05:26:44.833Z,82.85
2017-03-27T05:27:46.090Z,82.85
2017-03-27T05:28:47.286Z,82.75
2017-03-27T05:29:48.530Z,82.94
2017-03-27T05:30:49.753Z,82.81
2017-03-27T05:31:51.034Z,82.85
2017-03-27T05:32:52.257Z,81.99
2017-03-27T05:33:53.498Z,82.28
2017-03-27T05:34:54.785Z,82.28
2017-03-27T05:35:56.094Z,82.47
2017-03-27T05:36:57.320Z,82.18
2017-03-27T05:37:58.551Z,82.28
2017-03-27T05:38:59.789Z,82.47
2017-03-27T05:40:01.032Z,81.9
2017-03-27T05:41:02.290Z,82.18
2017-03-27T05:42:03.494Z,81.81
2017-03-27T05:43:04.747Z,82.09
2017-03-27T05:44:05.993Z,81.62
2017-03-27T05:45:07.240Z,81.52
2017-03-27T05:46:08.497Z,81.24
2017-03-27T05:47:09.708Z,81.33
2017-03-27T05:48:10.948Z,80.76
2017-03-27T05:49:12.203Z,80.86
2017-03-27T05:50:13.438Z,80.86
2017-03-27T05:51:14.692Z,80.76
2017-03-27T05:52:15.918Z,80.95
2017-03-27T05:53:17.181Z,81.14
2017-03-27T05:54:18.483Z,80.95
2017-03-27T05:55:19.640Z,80.38
2017-03-27T05:56:20.895Z,80.57
2017-03-27T05:57:22.120Z,80.76
2017-03-27T05:58:23.355Z,80.48
2017-03-27T05:59:24.591Z,80.86
2017-03-27T06:00:25.829Z,80.04
2017-03-27T06:01:27.184Z,79.85
2017-03-27T06:02:28.419Z,78.81
2017-03-27T06:03:29.676Z,78.56
2017-03-27T06:04:30.951Z,76.61
2017-03-27T06:05:32.144Z,73.9
2017-03-27T06:06:33.386Z,71.94
2017-03-27T06:07:34.680Z,70.17
2017-03-27T06:08:35.937Z,67.73
2017-03-27T06:09:37.198Z,65.58
2017-03-27T06:10:38.447Z,63.51
2017-03-27T06:11:39.669Z,60.18
2017-03-27T06:12:40.970Z,58.5
2017-03-27T06:13:42.218Z,56.24
2017-03-27T06:14:43.518Z,53.31
2017-03-27T06:15:44.753Z,52.76
2017-03-27T06:16:45.984Z,51.35
2017-03-27T06:17:47.245Z,50.02
2017-03-27T06:18:48.468Z,48.52
2017-03-27T06:19:49.706Z,47.56
2017-03-27T06:20:50.953Z,45.77
2017-03-27T06:21:52.285Z,45.48
2017-03-27T06:22:53.527Z,44.45
2017-03-27T06:23:54.792Z,43.4
2017-03-27T06:24:56.011Z,42.73
2017-03-27T06:25:57.346Z,41.68
2017-03-27T06:26:58.616Z,41.68
2017-03-27T06:28:00.033Z,41.97
2017-03-27T06:29:01.248Z,41.78
2017-03-27T06:30:02.507Z,41.78
2017-03-27T06:31:03.759Z,42.25
2017-03-27T06:32:05.015Z,41.8
2017-03-27T06:33:06.352Z,40.75
2017-03-27T06:34:07.496Z,39.79
2017-03-27T06:35:08.727Z,39.31
2017-03-27T06:36:09.976Z,39.23
2017-03-27T06:37:11.262Z,38.47
2017-03-27T06:38:12.499Z,37.72
2017-03-27T06:39:13.740Z,37.24
2017-03-27T06:40:15.018Z,36.57
2017-03-27T06:41:16.238Z,36.21
2017-03-27T06:42:17.479Z,36.13
2017-03-27T06:43:18.725Z,34.5
2017-03-27T06:44:19.965Z,34.42
2017-03-27T06:45:21.229Z,32.9
2017-03-27T06:46:22.505Z,31.95
2017-03-27T06:47:23.744Z,31.2
2017-03-27T06:48:25.014Z,30.63
2017-03-27T06:49:26.273Z,30.05
2017-03-27T06:50:27.538Z,29.69
2017-03-27T06:51:28.850Z,28.72
2017-03-27T06:52:30.069Z,28.07
2017-03-27T06:53:31.318Z,28.07
2017-03-27T06:54:32.582Z,27.39
2017-03-27T07:00:00.934Z,25.21
2017-03-27T07:01:02.183Z,25.68
2017-03-27T07:02:03.426Z,26.24
2017-03-27T07:03:04.658Z,26.05
2017-03-27T07:04:05.930Z,26.34
2017-03-27T07:05:07.257Z,26.24
2017-03-27T07:06:08.635Z,25.79
2017-03-27T07:07:10.068Z,25.03
2017-03-27T07:08:11.317Z,23.58
2017-03-27T07:09:12.566Z,23.11
2017-03-27T07:10:13.858Z,23.22
2017-03-27T07:11:15.194Z,22.74
2017-03-27T07:12:16.525Z,22.26
2017-03-27T07:13:17.797Z,22.56
2017-03-27T07:14:19.035Z,21.8
2017-03-27T07:15:20.270Z,20.64
2017-03-27T07:16:21.540Z,20.35
2017-03-27T07:17:22.880Z,20.45
2017-03-27T07:18:24.137Z,20.65
2017-03-27T07:19:25.409Z,19.88
2017-03-27T07:20:26.638Z,19.21
2017-03-27T07:21:27.896Z,19.7
2017-03-27T07:22:29.167Z,19.32
2017-03-27T07:23:30.414Z,17.97
2017-03-27T07:24:31.694Z,17.4
2017-03-27T07:25:32.964Z,17.22
2017-03-27T07:26:34.183Z,17.02
2017-03-27T07:27:35.441Z,17.12
2017-03-27T07:28:36.694Z,16.64
2017-03-27T07:29:37.969Z,16.55
2017-03-27T07:30:39.274Z,16.36
2017-03-27T07:31:40.571Z,15.49
2017-03-27T07:32:41.819Z,15.3
2017-03-27T07:33:43.074Z,15.11
2017-03-27T07:34:44.319Z,14.63
2017-03-27T07:35:45.573Z,14.73
2017-03-27T07:36:46.853Z,14.24
2017-03-27T07:37:48.243Z,14.34
2017-03-27T07:38:49.387Z,14.33
2017-03-27T07:39:50.633Z,14.24
2017-03-27T07:40:51.882Z,13.67
2017-03-27T07:41:53.159Z,13.37
2017-03-27T07:42:54.388Z,13.56
2017-03-27T07:43:55.645Z,14.23
2017-03-27T07:44:57.009Z,14.03
2017-03-27T07:45:58.323Z,14.32
2017-03-27T07:46:59.577Z,14.04
2017-03-27T07:48:00.864Z,14.51
2017-03-27T07:49:02.120Z,14.9
2017-03-27T07:50:03.374Z,14.99
2017-03-27T07:51:04.645Z,14.23
2017-03-27T07:52:05.893Z,13.73
2017-03-27T07:53:07.187Z,13.64
2017-03-27T07:54:08.446Z,14.98
2017-03-27T07:55:09.770Z,14.98
2017-03-27T07:56:11.016Z,14.69
2017-03-27T07:57:12.348Z,14.79
2017-03-27T07:58:13.605Z,14.5
2017-03-27T07:59:14.889Z,14.32
2017-03-27T08:00:16.144Z,14.43
2017-03-27T08:01:17.370Z,14.14
2017-03-27T08:02:18.642Z,13.09
2017-03-27T08:03:19.916Z,12.41
2017-03-27T08:04:21.204Z,12.98
2017-03-27T08:05:22.455Z,12.88
2017-03-27T08:06:23.728Z,12.88
2017-03-27T08:07:25.238Z,12.59
2017-03-27T08:08:26.720Z,12.98
2017-03-27T08:09:27.967Z,13.56
2017-03-27T08:10:29.303Z,13.08
2017-03-27T08:11:30.535Z,12.41
2017-03-27T08:12:31.821Z,12.22
2017-03-27T08:13:33.190Z,11.64
2017-03-27T08:14:34.442Z,10.68
2017-03-27T08:15:35.707Z,10.68
2017-03-27T08:16:36.963Z,10.29
2017-03-27T08:17:38.212Z,10.3
2017-03-27T08:18:39.458Z,10.1
2017-03-27T08:19:40.760Z,9.33
2017-03-27T08:20:42.016Z,9.63
2017-03-27T08:21:43.403Z,9.63
2017-03-27T08:22:44.660Z,9.33
2017-03-27T08:23:46.005Z,9.43
2017-03-27T08:24:47.318Z,9.43
2017-03-27T08:25:48.566Z,8.36
2017-03-27T08:26:49.814Z,8.45
2017-03-27T08:27:51.081Z,9.03
2017-03-27T08:28:52.342Z,10
2017-03-27T08:29:53.684Z,10.47
2017-03-27T08:30:54.937Z,10.38
2017-03-27T08:31:56.241Z,9.71
2017-03-27T08:32:57.500Z,9.62
2017-03-27T08:33:58.765Z,9.72
2017-03-27T08:35:00.016Z,9.42
2017-03-27T08:36:01.338Z,9.43
2017-03-27T08:37:02.797Z,9.23
2017-03-27T08:38:04.045Z,8.65
2017-03-27T08:39:05.422Z,9.04
2017-03-27T08:40:06.706Z,8.66
2017-03-27T08:41:08.077Z,8.28
2017-03-27T08:42:09.346Z,8.18
2017-03-27T08:43:10.643Z,8.37
2017-03-27T08:44:11.867Z,8.37
2017-03-27T08:45:13.142Z,8.08
2017-03-27T08:46:14.387Z,8.18
2017-03-27T08:47:15.755Z,7.79
2017-03-27T08:48:17.139Z,8.19
2017-03-27T08:49:18.411Z,7.4
2017-03-27T08:50:19.674Z,7.3
2017-03-27T08:51:20.965Z,7.89
2017-03-27T08:52:22.220Z,8.08
2017-03-27T08:53:23.470Z,7.7
2017-03-27T08:54:24.730Z,7.41
2017-03-27T08:55:25.979Z,7.12
2017-03-27T08:56:27.250Z,7.5
2017-03-27T08:57:28.490Z,7.98
2017-03-27T08:58:29.851Z,8.08
2017-03-27T08:59:31.117Z,7.7
2017-03-27T09:00:32.412Z,7.6
2017-03-27T09:01:33.653Z,7.6
2017-03-27T09:02:34.915Z,7.12
2017-03-27T09:03:36.194Z,7.02
2017-03-27T09:04:37.422Z,6.92
2017-03-27T09:05:38.736Z,7.02
2017-03-27T09:06:40.013Z,7.21
2017-03-27T09:07:41.279Z,7.7
2017-03-27T09:08:42.526Z,7.12
2017-03-27T09:09:43.776Z,7.01
2017-03-27T09:10:45.206Z,7.31
2017-03-27T09:11:46.484Z,7.31
2017-03-27T09:12:47.722Z,6.83
2017-03-27T09:13:48.984Z,6.05
2017-03-27T09:14:50.231Z,6.25
2017-03-27T09:15:51.506Z,5.96
2017-03-27T09:16:52.750Z,5.96
2017-03-27T09:17:54.009Z,6.15
2017-03-27T09:18:55.270Z,5.57
2017-03-27T09:19:56.538Z,5.27
2017-03-27T09:20:57.794Z,5.76
2017-03-27T09:21:59.155Z,5.18
2017-03-27T09:23:00.573Z,4.79
2017-03-27T09:24:01.803Z,4.69
2017-03-27T09:25:03.054Z,4.5
2017-03-27T09:26:04.313Z,4.5
2017-03-27T09:27:05.588Z,4.69
2017-03-27T09:28:06.962Z,4.79
2017-03-27T09:29:08.235Z,5.28
2017-03-27T09:30:09.475Z,4.89
2017-03-27T09:31:10.740Z,5.18
2017-03-27T09:32:11.998Z,5.08
2017-03-27T09:33:13.309Z,4.88
2017-03-27T09:34:14.686Z,4.79
2017-03-27T09:35:15.870Z,5.37
2017-03-27T09:36:17.094Z,5.27
2017-03-27T09:37:18.413Z,4.79
2017-03-27T09:38:19.670Z,5.38
2017-03-27T09:39:20.943Z,5.08
2017-03-27T09:40:22.210Z,4.69
2017-03-27T09:41:23.475Z,4.3
2017-03-27T09:42:24.734Z,4.59
2017-03-27T09:43:25.995Z,4.2
2017-03-27T09:44:27.392Z,4.58
2017-03-27T09:45:28.664Z,5.16
2017-03-27T09:46:29.947Z,5.27
2017-03-27T09:47:31.249Z,5.27
2017-03-27T09:48:32.554Z,5.65
2017-03-27T09:49:33.783Z,5.27
2017-03-27T09:50:35.044Z,4.88
2017-03-27T09:51:36.291Z,4.78
2017-03-27T09:52:37.750Z,5.07
2017-03-27T09:53:39.062Z,4.3
2017-03-27T09:54:40.319Z,4.39
2017-03-27T09:55:41.570Z,4.29
2017-03-27T09:56:42.857Z,4.19
2017-03-27T09:57:44.102Z,4.68
2017-03-27T09:58:45.367Z,4.69
2017-03-27T09:59:46.658Z,4.59
2017-03-27T10:00:47.883Z,4.2
2017-03-27T10:01:49.144Z,3.42
2017-03-27T10:02:50.406Z,4
2017-03-27T10:03:51.769Z,3.81
2017-03-27T10:04:53.103Z,4.3
2017-03-27T10:05:54.390Z,4.68
2017-03-27T10:06:55.619Z,4.49
2017-03-27T10:07:56.871Z,4.59
2017-03-27T10:08:58.136Z,4.1
2017-03-27T10:09:59.411Z,3.91
2017-03-27T10:11:00.699Z,3.61
2017-03-27T10:12:01.950Z,3.81
2017-03-27T10:13:03.203Z,4.38
2017-03-27T10:14:04.477Z,5.06
2017-03-27T10:15:05.723Z,5.35
2017-03-27T10:16:07.011Z,5.65
2017-03-27T10:17:08.408Z,5.46
2017-03-27T10:18:09.622Z,5.27
2017-03-27T10:19:10.887Z,4.97
2017-03-27T10:20:12.146Z,5.07
2017-03-27T10:21:13.466Z,5.07
2017-03-27T10:22:14.789Z,5.16
2017-03-27T10:23:16.070Z,5.07
2017-03-27T10:24:17.292Z,4.49
2017-03-27T10:25:18.543Z,4.58
2017-03-27T10:26:19.791Z,4.48
2017-03-27T10:27:21.070Z,5.35
2017-03-27T10:28:22.344Z,5.26
2017-03-27T10:29:23.603Z,5.26
2017-03-27T10:30:24.869Z,5.35
2017-03-27T10:31:26.114Z,5.94
2017-03-27T10:32:27.475Z,6.32
2017-03-27T10:33:28.816Z,6.61
2017-03-27T10:34:30.056Z,7.19
2017-03-27T10:35:31.404Z,7.39
2017-03-27T10:36:32.657Z,7.2
2017-03-27T10:37:33.903Z,6.52
2017-03-27T10:38:35.179Z,6.13
2017-03-27T10:39:36.399Z,6.42
2017-03-27T10:40:37.690Z,6.99
2017-03-27T10:41:38.938Z,7.19
2017-03-27T10:42:40.196Z,7.48
2017-03-27T10:43:41.448Z,7.39
2017-03-27T10:44:42.703Z,7.38
2017-03-27T10:45:43.957Z,8.04
2017-03-27T10:46:45.287Z,8.83
2017-03-27T10:47:46.545Z,9.11
2017-03-27T10:48:47.814Z,9.5
2017-03-27T10:49:49.052Z,10.08
2017-03-27T10:50:50.322Z,10.75
2017-03-27T10:51:51.658Z,11.04
2017-03-27T10:52:53.129Z,11.13
2017-03-27T10:53:54.388Z,11.23
2017-03-27T10:54:55.609Z,11.03
2017-03-27T10:55:56.903Z,11.12
2017-03-27T10:56:58.123Z,11.79
2017-03-27T10:57:59.481Z,11.79
2017-03-27T10:59:00.753Z,12.55
2017-03-27T11:00:02.082Z,13.32
2017-03-27T11:01:03.292Z,13.6
2017-03-27T11:02:04.552Z,13.6
2017-03-27T11:03:05.843Z,14.37
2017-03-27T11:04:07.240Z,13.98
2017-03-27T11:05:08.497Z,14.64
2017-03-27T11:06:09.747Z,15.5
2017-03-27T11:07:10.991Z,15.4
2017-03-27T11:08:12.238Z,16.08
2017-03-27T11:09:13.500Z,16.55
2017-03-27T11:10:14.952Z,15.49
2017-03-27T11:11:16.236Z,15.97
2017-03-27T11:12:17.439Z,15.48
2017-03-27T11:13:18.676Z,16.44
2017-03-27T11:14:19.920Z,16.92
2017-03-27T11:15:21.174Z,17.11
2017-03-27T11:16:22.423Z,17.97
2017-03-27T11:17:23.689Z,18.46
2017-03-27T11:18:24.927Z,18.55
2017-03-27T11:19:26.177Z,17.87
2017-03-27T11:20:27.453Z,18.54
2017-03-27T11:21:28.703Z,18.54
2017-03-27T11:22:29.952Z,18.54
2017-03-27T11:23:31.238Z,18.63
2017-03-27T11:24:32.505Z,19.01
2017-03-27T11:25:33.751Z,19.2
2017-03-27T11:26:34.996Z,19.48
2017-03-27T11:27:36.268Z,20.06
2017-03-27T11:28:37.488Z,20.35
2017-03-27T11:29:38.738Z,19.96
2017-03-27T11:30:40.134Z,20.15
2017-03-27T11:31:41.291Z,20.44
2017-03-27T11:32:42.535Z,20.44
2017-03-27T11:33:43.789Z,20.54
2017-03-27T11:34:45.051Z,19.96
2017-03-27T11:35:46.318Z,19.96
2017-03-27T11:36:47.572Z,20.15
2017-03-27T11:37:48.823Z,19.18
2017-03-27T11:38:50.065Z,19.47
2017-03-27T11:39:51.321Z,18.8
2017-03-27T11:40:52.568Z,18.71
2017-03-27T11:41:53.834Z,18.42
2017-03-27T11:42:55.103Z,18.61
2017-03-27T11:43:56.330Z,18.61
2017-03-27T11:44:57.606Z,18.99
2017-03-27T11:45:58.840Z,19.18
2017-03-27T11:47:00.093Z,19.57
2017-03-27T11:48:01.381Z,19.47
2017-03-27T11:49:02.694Z,18.71
2017-03-27T11:50:03.922Z,17.17
2017-03-27T11:51:05.149Z,16.31
2017-03-27T11:52:06.429Z,16.88
2017-03-27T11:53:07.688Z,16.02
2017-03-27T11:54:08.992Z,16.3
2017-03-27T11:55:10.231Z,16.39
2017-03-27T11:56:11.490Z,16.49
2017-03-27T11:57:12.719Z,16.68
2017-03-27T11:58:13.971Z,15.82
2017-03-27T11:59:15.273Z,15.53
2017-03-27T12:00:16.515Z,15.72
2017-03-27T12:01:17.798Z,14.67
2017-03-27T12:02:19.062Z,14.76
2017-03-27T12:03:20.441Z,14.95
2017-03-27T12:04:21.647Z,15.63
2017-03-27T12:05:22.904Z,15.05
2017-03-27T12:06:24.198Z,14.76
2017-03-27T12:07:25.438Z,14.86
2017-03-27T12:08:26.691Z,14.95
2017-03-27T12:09:27.964Z,15.15
2017-03-27T12:10:29.215Z,14.76
2017-03-27T12:11:30.460Z,15.63
2017-03-27T12:12:31.714Z,15.15
2017-03-27T12:13:33.235Z,15.63
2017-03-27T12:14:34.517Z,15.72
2017-03-27T12:15:35.749Z,16.49
2017-03-27T12:16:36.984Z,16.11
2017-03-27T12:17:38.226Z,16.11
2017-03-27T12:18:39.479Z,16.78
2017-03-27T12:19:40.816Z,16.49
2017-03-27T12:20:42.065Z,15.72
2017-03-27T12:21:43.300Z,15.72
2017-03-27T12:22:44.540Z,15.82
2017-03-27T12:23:45.792Z,15.82
2017-03-27T12:24:47.066Z,15.63
2017-03-27T12:25:48.310Z,15.53
2017-03-27T12:26:49.548Z,15.15
2017-03-27T12:27:50.797Z,15.05
2017-03-27T12:28:52.057Z,15.15
2017-03-27T12:29:53.304Z,15.72
2017-03-27T12:30:54.569Z,15.72
2017-03-27T12:31:55.808Z,15.63
2017-03-27T12:32:57.062Z,15.63
2017-03-27T12:33:58.314Z,15.34
2017-03-27T12:34:59.561Z,16.11
2017-03-27T12:36:00.805Z,15.72
2017-03-27T12:37:02.042Z,15.63
2017-03-27T12:38:03.325Z,15.82
2017-03-27T12:39:04.630Z,16.11
2017-03-27T12:40:05.868Z,16.11
2017-03-27T12:41:07.086Z,16.68
2017-03-27T12:42:08.332Z,16.11
2017-03-27T12:43:09.592Z,16.01
2017-03-27T12:44:10.987Z,16.11
2017-03-27T12:45:12.269Z,15.82
2017-03-27T12:46:13.544Z,15.82
2017-03-27T12:47:14.799Z,15.53
2017-03-27T12:48:16.041Z,16.11
2017-03-27T12:49:17.339Z,16.39
2017-03-27T12:50:18.586Z,16.88
2017-03-27T12:51:19.869Z,16.49
2017-03-27T12:52:21.208Z,15.72
2017-03-27T12:53:22.444Z,16.11
2017-03-27T12:54:23.705Z,16.39
2017-03-27T12:55:25.178Z,17.35
2017-03-27T12:56:26.562Z,16.88
2017-03-27T12:57:27.789Z,17.55
2017-03-27T12:58:29.037Z,16.58
2017-03-27T12:59:30.294Z,15.72
2017-03-27T13:00:31.531Z,15.63
2017-03-27T13:01:32.906Z,15.82
2017-03-27T13:02:34.177Z,15.92
2017-03-27T13:03:35.388Z,15.53
2017-03-27T13:04:36.639Z,16.39
2017-03-27T13:05:37.899Z,16.68
2017-03-27T13:06:39.160Z,16.39
2017-03-27T13:07:40.428Z,16.11
2017-03-27T13:08:41.675Z,16.01
2017-03-27T13:09:42.964Z,16.11
2017-03-27T13:10:44.220Z,16.11
2017-03-27T13:11:45.504Z,15.92
2017-03-27T13:12:46.764Z,15.82
2017-03-27T13:13:48.148Z,15.82
2017-03-27T13:14:49.438Z,16.49
2017-03-27T13:15:50.708Z,16.39
2017-03-27T13:16:51.966Z,16.11
2017-03-27T13:17:53.207Z,16.49
2017-03-27T13:18:54.467Z,16.39
2017-03-27T13:19:55.753Z,16.58
2017-03-27T13:20:57.202Z,16.39